Time;durP1;ratioP1;P1;durP2;ratioP2;P2;SDS_P1;SDS_P2;PMS_P1;PMS_P2;Temp;Humidity;BMP_temperature;BMP_pressure;BME280_temperature;BME280_humidity;BME280_pressure;Samples;Min_cycle;Max_cycle;Signal;HPM_P1;HPM_P2
2022/10/30 00:01:01;;;;;;;12.75;3.70;;;;;;;14.66;100.00;99230.38;4968205;28;20280;-60
2022/10/30 00:03:26;;;;;;;10.82;3.40;;;;;;;14.69;100.00;99226.63;4975193;28;20026;-60
2022/10/30 00:05:52;;;;;;;12.45;3.60;;;;;;;14.71;100.00;99227.28;4991662;28;20124;-60
2022/10/30 00:08:19;;;;;;;9.38;3.40;;;;;;;14.72;100.00;99237.59;4965925;28;20762;-61
2022/10/30 00:10:45;;;;;;;8.98;3.30;;;;;;;14.71;100.00;99230.75;4970135;28;20022;-60
2022/10/30 00:13:12;;;;;;;8.48;3.25;;;;;;;14.75;100.00;99229.44;4970758;28;20827;-60
2022/10/30 00:15:37;;;;;;;10.25;3.17;;;;;;;14.75;100.00;99220.78;4967264;28;20050;-60
2022/10/30 00:18:03;;;;;;;7.35;2.90;;;;;;;14.67;100.00;99229.41;4971913;28;20031;-63
2022/10/30 00:20:28;;;;;;;8.63;3.78;;;;;;;14.55;100.00;99231.44;4965930;28;20117;-60
2022/10/30 00:22:54;;;;;;;9.70;3.83;;;;;;;14.43;100.00;99228.25;4981633;28;20062;-62
2022/10/30 00:25:19;;;;;;;11.95;3.58;;;;;;;14.40;100.00;99217.28;4963932;28;20035;-60
2022/10/30 00:27:45;;;;;;;9.52;2.85;;;;;;;14.44;100.00;99218.63;4969416;28;20030;-60
2022/10/30 00:30:11;;;;;;;9.30;3.00;;;;;;;14.51;100.00;99226.66;4968382;28;20918;-61
2022/10/30 00:32:36;;;;;;;11.35;3.40;;;;;;;14.50;100.00;99217.19;4968660;28;20031;-64
2022/10/30 00:35:02;;;;;;;7.85;2.88;;;;;;;14.64;100.00;99226.25;4972695;28;20521;-60
2022/10/30 00:37:27;;;;;;;9.43;2.83;;;;;;;14.55;100.00;99217.53;4981394;28;20046;-60
2022/10/30 00:39:52;;;;;;;12.07;3.28;;;;;;;14.48;100.00;99213.91;4964439;28;20031;-60
2022/10/30 00:42:18;;;;;;;7.82;2.58;;;;;;;14.55;100.00;99228.00;4966660;28;20034;-60
2022/10/30 00:44:45;;;;;;;9.73;2.83;;;;;;;14.58;100.00;99231.16;4987696;28;20713;-60
2022/10/30 00:47:19;;;;;;;8.63;2.80;;;;;;;14.54;100.00;99236.81;4974037;28;20038;-60
2022/10/30 00:49:57;;;;;;;11.02;2.75;;;;;;;14.59;100.00;99230.19;4978487;28;20720;-60
2022/10/30 00:52:26;;;;;;;10.90;2.90;;;;;;;14.58;100.00;99223.31;4970984;28;20061;-60
2022/10/30 00:54:52;;;;;;;7.55;3.05;;;;;;;14.60;100.00;99223.13;4968530;28;20062;-61
2022/10/30 00:57:18;;;;;;;9.88;3.05;;;;;;;14.56;100.00;99222.59;4971977;28;20045;-60
2022/10/30 00:59:44;;;;;;;8.60;3.00;;;;;;;14.47;100.00;99220.09;4958580;28;20030;-61
2022/10/30 01:02:10;;;;;;;9.15;2.78;;;;;;;14.47;100.00;99218.28;4974572;28;20034;-60
2022/10/30 01:04:37;;;;;;;9.27;3.42;;;;;;;14.53;100.00;99219.47;4981403;28;20730;-60
2022/10/30 01:07:13;;;;;;;7.10;2.65;;;;;;;14.40;100.00;99196.34;4955588;28;20552;-60
2022/10/30 01:09:39;;;;;;;9.68;2.42;;;;;;;14.51;100.00;99213.56;4956944;28;20023;-60
2022/10/30 01:12:05;;;;;;;8.45;2.92;;;;;;;14.45;100.00;99193.28;4974327;28;20049;-60
2022/10/30 01:14:33;;;;;;;7.22;2.78;;;;;;;14.55;100.00;99207.06;4973803;28;20027;-60
2022/10/30 01:17:07;;;;;;;12.95;3.20;;;;;;;14.30;100.00;99161.63;4970762;28;20038;-61
2022/10/30 01:19:41;;;;;;;11.48;2.78;;;;;;;14.54;100.00;99200.19;4966027;28;20022;-60
2022/10/30 01:22:44;;;;;;;9.52;2.90;;;;;;;14.53;100.00;99202.00;4969833;28;20097;-60
2022/10/30 01:25:28;;;;;;;9.82;3.03;;;;;;;14.48;100.00;99199.00;4971384;28;20076;-60
2022/10/30 01:27:56;;;;;;;8.23;3.30;;;;;;;14.47;100.00;99193.94;4971238;28;20041;-60
2022/10/30 01:30:30;;;;;;;10.90;2.80;;;;;;;14.52;100.00;99200.34;4972435;28;20053;-61
2022/10/30 01:33:04;;;;;;;7.97;2.70;;;;;;;14.39;100.00;99200.75;4967738;28;20030;-61
2022/10/30 01:35:46;;;;;;;7.75;2.90;;;;;;;14.45;100.00;99194.09;4974099;28;20077;-60
2022/10/30 01:38:22;;;;;;;7.95;2.63;;;;;;;14.41;100.00;99190.97;4979632;28;20033;-60
2022/10/30 01:40:47;;;;;;;8.90;2.65;;;;;;;14.43;100.00;99194.22;4973962;28;20030;-61
2022/10/30 01:43:13;;;;;;;8.57;2.72;;;;;;;14.13;100.00;99155.50;4986718;28;20035;-60
2022/10/30 01:45:47;;;;;;;10.18;3.33;;;;;;;14.39;100.00;99194.72;4980162;28;20041;-60
2022/10/30 01:48:35;;;;;;;10.38;3.03;;;;;;;14.30;100.00;99193.03;4976336;28;20041;-59
2022/10/30 01:51:18;;;;;;;8.85;2.65;;;;;;;13.97;100.00;99141.34;4990631;28;20278;-60
2022/10/30 01:54:04;;;;;;;6.65;2.95;;;;;;;13.97;100.00;99135.28;4980512;28;20036;-60
2022/10/30 01:56:58;;;;;;;9.13;3.42;;;;;;;14.24;100.00;99186.63;4984816;28;20034;-60
2022/10/30 01:59:33;;;;;;;7.45;2.88;;;;;;;14.20;100.00;99177.41;4977731;28;20041;-60
2022/10/30 02:01:58;;;;;;;6.75;2.80;;;;;;;14.25;100.00;99188.25;4956373;28;20084;-60
2022/10/30 02:04:24;;;;;;;8.60;3.03;;;;;;;14.20;100.00;99186.09;4967156;28;20030;-60
2022/10/30 02:06:50;;;;;;;7.70;2.60;;;;;;;13.98;100.00;99144.75;4969402;28;20505;-59
2022/10/30 02:09:16;;;;;;;10.48;3.20;;;;;;;14.15;100.00;99177.91;4970557;28;20026;-59
2022/10/30 02:11:44;;;;;;;9.95;2.70;;;;;;;14.13;100.00;99179.84;4971068;28;20038;-61
2022/10/30 02:14:10;;;;;;;10.50;2.80;;;;;;;14.06;100.00;99162.31;4980728;28;20033;-60
2022/10/30 02:16:38;;;;;;;9.27;2.67;;;;;;;14.17;100.00;99178.56;4961999;28;20038;-60
2022/10/30 02:19:05;;;;;;;14.57;3.75;;;;;;;14.16;100.00;99176.09;4955797;28;20034;-60
2022/10/30 02:21:30;;;;;;;9.27;2.92;;;;;;;14.23;100.00;99182.34;4976694;28;20787;-60
2022/10/30 02:23:56;;;;;;;9.65;3.10;;;;;;;14.17;100.00;99175.13;4938790;28;20161;-60
2022/10/30 02:26:21;;;;;;;7.00;2.83;;;;;;;14.15;100.00;99185.75;4971013;28;20080;-61
2022/10/30 02:28:47;;;;;;;6.75;2.38;;;;;;;14.11;100.00;99170.50;4973732;28;20038;-60
2022/10/30 02:31:12;;;;;;;8.77;3.05;;;;;;;13.99;100.00;99154.25;4971996;28;20038;-60
2022/10/30 02:33:39;;;;;;;9.27;3.03;;;;;;;14.16;100.00;99163.03;4974267;28;20099;-60
2022/10/30 02:36:05;;;;;;;7.82;2.60;;;;;;;14.23;100.00;99175.31;4974522;28;20192;-60
2022/10/30 02:38:31;;;;;;;9.85;3.20;;;;;;;14.23;100.00;99170.09;4965505;28;20814;-60
2022/10/30 02:40:57;;;;;;;8.93;2.58;;;;;;;14.21;100.00;99173.84;4989054;28;20437;-60
2022/10/30 02:43:22;;;;;;;7.13;2.58;;;;;;;14.22;100.00;99155.38;4985807;28;20030;-59
2022/10/30 02:45:51;;;;;;;7.22;2.78;;;;;;;14.19;100.00;99162.72;4976437;28;20564;-60
2022/10/30 02:48:17;;;;;;;7.35;2.50;;;;;;;14.15;100.00;99153.56;4971075;28;20696;-60
2022/10/30 02:50:42;;;;;;;12.57;2.92;;;;;;;14.17;100.00;99148.97;4974841;28;20027;-60
2022/10/30 02:53:07;;;;;;;12.20;2.92;;;;;;;14.18;100.00;99153.22;4977913;28;20491;-60
2022/10/30 02:55:33;;;;;;;7.03;2.42;;;;;;;14.13;100.00;99152.88;4970520;28;20037;-60
2022/10/30 02:57:58;;;;;;;10.98;2.63;;;;;;;14.10;100.00;99150.56;4982501;28;20034;-60
2022/10/30 03:00:24;;;;;;;7.57;2.53;;;;;;;14.07;100.00;99151.69;4989451;28;20047;-59
2022/10/30 03:02:56;;;;;;;7.82;3.20;;;;;;;13.98;100.00;99152.59;4978560;28;20038;-59
2022/10/30 03:05:21;;;;;;;7.90;2.60;;;;;;;13.88;100.00;99131.78;4975302;28;20039;-59
2022/10/30 03:07:47;;;;;;;8.90;2.10;;;;;;;14.00;100.00;99140.19;4976065;28;20042;-59
2022/10/30 03:10:13;;;;;;;9.35;2.28;;;;;;;13.99;100.00;99143.81;4977415;28;20085;-60
2022/10/30 03:12:39;;;;;;;7.82;3.00;;;;;;;14.04;100.00;99142.38;4977797;28;20057;-60
2022/10/30 03:15:04;;;;;;;7.55;2.63;;;;;;;14.00;100.00;99130.56;4977525;28;20899;-59
2022/10/30 03:17:30;;;;;;;11.25;2.65;;;;;;;14.12;100.00;99138.16;4972405;28;20026;-60
2022/10/30 03:19:55;;;;;;;8.15;2.22;;;;;;;14.03;100.00;99140.72;4954725;28;20116;-60
2022/10/30 03:22:21;;;;;;;7.28;2.42;;;;;;;14.04;100.00;99136.31;4978063;28;20060;-60
2022/10/30 03:24:46;;;;;;;7.63;2.40;;;;;;;14.03;100.00;99132.06;4977362;28;20646;-60
2022/10/30 03:27:11;;;;;;;10.10;3.25;;;;;;;13.95;100.00;99130.22;4977011;28;20108;-61
2022/10/30 03:29:37;;;;;;;12.50;2.72;;;;;;;14.00;100.00;99145.44;4962798;28;20054;-59
2022/10/30 03:32:02;;;;;;;7.05;2.72;;;;;;;14.07;100.00;99149.06;4973977;28;20073;-60
2022/10/30 03:34:28;;;;;;;9.65;2.97;;;;;;;14.06;100.00;99146.63;4981311;28;20532;-59
2022/10/30 03:36:53;;;;;;;9.07;2.90;;;;;;;14.03;100.00;99140.72;4981274;28;20034;-59
2022/10/30 03:39:19;;;;;;;9.15;2.53;;;;;;;14.08;100.00;99149.91;4977916;28;20045;-60
2022/10/30 03:41:44;;;;;;;8.60;2.47;;;;;;;14.02;100.00;99146.94;4969002;28;20482;-60
2022/10/30 03:44:10;;;;;;;8.05;2.60;;;;;;;14.10;100.00;99150.56;4976542;28;20081;-60
2022/10/30 03:46:35;;;;;;;7.38;2.30;;;;;;;14.11;100.00;99150.41;4976727;28;20750;-60
2022/10/30 03:49:00;;;;;;;8.35;2.28;;;;;;;14.05;100.00;99156.25;4986091;28;20034;-59
2022/10/30 03:51:26;;;;;;;7.25;2.38;;;;;;;14.07;100.00;99156.91;4959146;28;20038;-60
2022/10/30 03:53:51;;;;;;;8.93;2.53;;;;;;;14.07;100.00;99151.69;4972971;28;20030;-59
2022/10/30 03:56:18;;;;;;;9.00;2.85;;;;;;;14.08;100.00;99161.19;4979162;28;20048;-60
2022/10/30 03:58:44;;;;;;;8.85;3.08;;;;;;;14.12;100.00;99162.50;4988201;28;20050;-59
2022/10/30 04:01:10;;;;;;;6.68;2.15;;;;;;;14.17;100.00;99162.06;4991976;28;20045;-60
2022/10/30 04:03:35;;;;;;;12.52;2.85;;;;;;;14.08;100.00;99162.97;4955446;28;20528;-60
2022/10/30 04:06:01;;;;;;;9.82;2.85;;;;;;;14.14;100.00;99164.97;4973962;28;20593;-60
2022/10/30 04:08:26;;;;;;;10.77;2.60;;;;;;;14.12;100.00;99157.28;4973567;28;20030;-60
2022/10/30 04:10:52;;;;;;;9.30;2.28;;;;;;;14.12;100.00;99159.88;4976582;28;20041;-61
2022/10/30 04:13:19;;;;;;;8.35;2.42;;;;;;;14.03;100.00;99164.25;4980501;28;20034;-60
2022/10/30 04:15:46;;;;;;;7.60;2.20;;;;;;;13.75;100.00;99123.56;4972315;28;20498;-60
2022/10/30 04:18:12;;;;;;;8.32;2.30;;;;;;;13.98;100.00;99163.06;4997370;28;20042;-60
2022/10/30 04:20:38;;;;;;;7.70;2.53;;;;;;;13.69;100.00;99127.59;4973553;28;20034;-60
2022/10/30 04:23:06;;;;;;;8.95;2.47;;;;;;;13.68;100.00;99130.34;4962898;28;20084;-59
2022/10/30 04:25:32;;;;;;;12.23;2.60;;;;;;;13.73;100.00;99131.53;4976262;28;20026;-60
2022/10/30 04:27:58;;;;;;;10.25;2.67;;;;;;;13.95;100.00;99172.03;4974702;28;20018;-60
2022/10/30 04:30:26;;;;;;;8.15;2.50;;;;;;;13.88;100.00;99165.78;4975380;28;20049;-60
2022/10/30 04:32:53;;;;;;;8.15;2.80;;;;;;;13.95;100.00;99163.38;4972828;28;20058;-59
2022/10/30 04:35:21;;;;;;;11.65;2.47;;;;;;;13.67;100.00;99129.50;4976069;28;20038;-60
2022/10/30 04:37:54;;;;;;;8.10;2.30;;;;;;;13.87;100.00;99171.16;4975481;28;20026;-60
2022/10/30 04:40:23;;;;;;;8.30;2.72;;;;;;;13.84;100.00;99162.66;4979591;28;20030;-60
2022/10/30 04:42:49;;;;;;;10.38;2.83;;;;;;;13.95;100.00;99160.78;4970745;28;20537;-59
2022/10/30 04:45:14;;;;;;;8.00;2.20;;;;;;;13.87;100.00;99153.66;4973407;28;20089;-60
2022/10/30 04:47:40;;;;;;;7.57;2.20;;;;;;;13.73;100.00;99151.63;4976717;28;20032;-60
2022/10/30 04:50:06;;;;;;;8.98;2.20;;;;;;;13.72;100.00;99171.69;4988712;28;20043;-60
2022/10/30 04:52:31;;;;;;;7.93;2.40;;;;;;;13.49;100.00;99140.00;4970987;28;20487;-58
2022/10/30 04:54:56;;;;;;;10.73;2.28;;;;;;;13.69;100.00;99168.56;4973144;28;20045;-60
2022/10/30 04:57:22;;;;;;;8.35;2.35;;;;;;;13.75;100.00;99165.38;4963124;28;20785;-60
2022/10/30 04:59:47;;;;;;;9.88;2.45;;;;;;;13.82;100.00;99167.22;4962791;28;20070;-59
2022/10/30 05:02:13;;;;;;;11.07;2.65;;;;;;;13.76;100.00;99166.97;4972986;28;20026;-60
2022/10/30 05:04:38;;;;;;;8.45;2.22;;;;;;;13.86;100.00;99165.13;4973694;28;20401;-60
2022/10/30 05:07:04;;;;;;;11.68;3.30;;;;;;;13.76;100.00;99173.06;4958678;28;20034;-59
2022/10/30 05:09:29;;;;;;;9.77;2.60;;;;;;;13.74;100.00;99161.09;4979697;28;20696;-60
2022/10/30 05:11:55;;;;;;;8.63;2.90;;;;;;;13.75;100.00;99167.97;4971209;28;20073;-59
2022/10/30 05:14:20;;;;;;;8.10;2.20;;;;;;;13.42;100.00;99126.72;4959224;28;20041;-60
2022/10/30 05:16:45;;;;;;;9.50;2.92;;;;;;;12.84;100.00;99041.78;4978536;28;20841;-60
2022/10/30 05:19:11;;;;;;;7.97;2.03;;;;;;;13.70;100.00;99160.56;4975314;28;20045;-59
2022/10/30 05:21:36;;;;;;;13.07;3.00;;;;;;;13.70;100.00;99157.16;4963318;28;20023;-59
2022/10/30 05:24:02;;;;;;;8.50;3.13;;;;;;;13.61;100.00;99151.84;4971738;28;20133;-59
2022/10/30 05:26:27;;;;;;;8.93;2.20;;;;;;;13.65;100.00;99162.81;4990406;28;20382;-60
2022/10/30 05:28:53;;;;;;;12.15;2.30;;;;;;;13.70;100.00;99167.59;4959216;28;20053;-60
2022/10/30 05:31:18;;;;;;;7.20;2.47;;;;;;;13.28;100.00;99121.97;4979590;28;20040;-60
2022/10/30 05:33:44;;;;;;;9.32;2.60;;;;;;;13.67;100.00;99155.63;4972238;28;20038;-60
2022/10/30 05:36:09;;;;;;;14.82;2.60;;;;;;;13.63;100.00;99156.91;4974994;28;20034;-60
2022/10/30 05:38:35;;;;;;;7.72;2.65;;;;;;;13.56;100.00;99148.88;4941581;28;20034;-59
2022/10/30 05:41:00;;;;;;;8.73;2.50;;;;;;;13.65;100.00;99147.97;4972315;28;20419;-60
2022/10/30 05:43:25;;;;;;;8.75;2.55;;;;;;;13.57;100.00;99144.47;4974821;28;20449;-60
2022/10/30 05:45:51;;;;;;;8.82;2.20;;;;;;;13.57;100.00;99145.28;4955462;28;20027;-59
2022/10/30 05:48:17;;;;;;;7.38;1.95;;;;;;;13.64;100.00;99148.13;4974494;28;20057;-60
2022/10/30 05:50:43;;;;;;;7.72;2.30;;;;;;;13.60;100.00;99139.78;4955955;28;20031;-60
2022/10/30 05:53:09;;;;;;;12.80;2.70;;;;;;;13.62;100.00;99150.06;4952950;28;20038;-59
2022/10/30 05:55:35;;;;;;;7.68;2.47;;;;;;;13.58;100.00;99143.47;4984197;28;20112;-59
2022/10/30 05:58:03;;;;;;;8.20;2.33;;;;;;;13.60;100.00;99152.03;4968670;28;20042;-60
2022/10/30 06:00:31;;;;;;;8.10;2.10;;;;;;;13.58;100.00;99143.47;4969861;28;20030;-59
2022/10/30 06:03:00;;;;;;;12.10;2.58;;;;;;;13.57;100.00;99150.50;4966365;28;20129;-59
2022/10/30 06:05:26;;;;;;;9.50;2.60;;;;;;;13.54;100.00;99145.56;4970755;28;20030;-60
2022/10/30 06:07:55;;;;;;;8.80;2.83;;;;;;;13.61;100.00;99157.06;4956675;28;20049;-60
2022/10/30 06:10:20;;;;;;;9.82;2.63;;;;;;;13.60;100.00;99154.63;4973301;28;20046;-60
2022/10/30 06:12:53;;;;;;;5.65;2.03;;;;;;;13.62;100.00;99155.28;4967508;28;20065;-60
2022/10/30 06:15:19;;;;;;;10.65;2.53;;;;;;;13.54;100.00;99150.81;4968568;28;20034;-60
2022/10/30 06:17:45;;;;;;;8.88;2.17;;;;;;;13.56;100.00;99155.88;4976254;28;20449;-59
2022/10/30 06:20:10;;;;;;;6.45;1.90;;;;;;;13.60;100.00;99154.63;4955873;28;20395;-59
2022/10/30 06:22:36;;;;;;;9.30;1.92;;;;;;;13.59;100.00;99153.78;4969795;28;20472;-59
2022/10/30 06:25:02;;;;;;;6.97;2.03;;;;;;;13.35;100.00;99123.06;4966616;28;21260;-59
2022/10/30 06:27:27;;;;;;;6.38;2.50;;;;;;;13.32;100.00;99109.47;4971640;28;20030;-60
2022/10/30 06:29:53;;;;;;;7.10;2.22;;;;;;;13.63;100.00;99154.31;4969765;28;20026;-59
2022/10/30 06:32:20;;;;;;;10.07;2.58;;;;;;;13.36;100.00;99126.47;4974555;28;20033;-59
2022/10/30 06:34:45;;;;;;;6.43;2.00;;;;;;;13.55;100.00;99160.28;4952798;28;20026;-60
2022/10/30 06:37:10;;;;;;;10.43;2.53;;;;;;;13.59;100.00;99171.25;4978068;28;20791;-60
2022/10/30 06:39:36;;;;;;;6.63;2.30;;;;;;;13.60;100.00;99159.84;4987259;28;20074;-59
2022/10/30 06:42:01;;;;;;;10.57;2.10;;;;;;;13.59;100.00;99160.81;4973624;28;20046;-60
2022/10/30 06:44:27;;;;;;;10.85;2.65;;;;;;;13.62;100.00;99163.13;4972317;28;20034;-60
2022/10/30 06:46:53;;;;;;;8.65;2.60;;;;;;;13.65;100.00;99158.44;4976133;28;20045;-60
2022/10/30 06:49:19;;;;;;;9.25;2.45;;;;;;;13.70;100.00;99157.16;4972875;28;20492;-60
2022/10/30 06:51:45;;;;;;;10.00;2.33;;;;;;;13.76;100.00;99169.59;4955929;28;20170;-59
2022/10/30 06:54:10;;;;;;;8.63;2.30;;;;;;;13.79;100.00;99162.28;4971159;28;20031;-60
2022/10/30 06:56:36;;;;;;;12.02;2.25;;;;;;;13.80;100.00;99163.94;4980126;28;20814;-60
2022/10/30 06:59:01;;;;;;;5.15;2.15;;;;;;;13.79;100.00;99162.28;4958314;28;20032;-59
2022/10/30 07:01:27;;;;;;;6.35;2.30;;;;;;;13.75;100.00;99170.59;4960990;28;20465;-59
2022/10/30 07:03:52;;;;;;;11.20;2.30;;;;;;;13.78;100.00;99162.44;4960771;28;20322;-59
2022/10/30 07:06:18;;;;;;;8.77;2.28;;;;;;;13.71;100.00;99169.22;4956415;28;20130;-60
2022/10/30 07:08:45;;;;;;;8.60;2.13;;;;;;;13.74;100.00;99166.31;4973411;28;20030;-60
2022/10/30 07:11:10;;;;;;;9.30;1.98;;;;;;;13.67;100.00;99162.66;4971450;28;20043;-60
2022/10/30 07:13:36;;;;;;;6.35;1.92;;;;;;;13.73;100.00;99177.75;4956627;28;20112;-59
2022/10/30 07:16:01;;;;;;;7.93;2.00;;;;;;;13.78;100.00;99181.56;4973708;28;20038;-60
2022/10/30 07:18:27;;;;;;;7.57;2.17;;;;;;;13.76;100.00;99177.44;4966666;28;20136;-59
2022/10/30 07:20:54;;;;;;;8.85;2.05;;;;;;;13.78;100.00;99183.34;4971523;28;20042;-59
2022/10/30 07:23:20;;;;;;;7.95;2.22;;;;;;;13.75;100.00;99181.84;4959255;28;20035;-59
2022/10/30 07:25:45;;;;;;;8.38;2.10;;;;;;;13.75;100.00;99160.13;4981652;28;20046;-60
2022/10/30 07:28:11;;;;;;;9.95;2.25;;;;;;;13.87;100.00;99174.59;4972024;28;20196;-60
2022/10/30 07:30:37;;;;;;;7.13;2.33;;;;;;;13.95;100.00;99173.84;4957979;28;20412;-60
2022/10/30 07:33:05;;;;;;;9.85;2.25;;;;;;;13.90;100.00;99179.50;4958286;28;20069;-59
2022/10/30 07:35:33;;;;;;;7.53;2.20;;;;;;;13.96;100.00;99175.47;4958369;28;20125;-61
2022/10/30 07:38:08;;;;;;;7.57;1.92;;;;;;;13.93;100.00;99187.06;4975338;28;20864;-59
2022/10/30 07:40:33;;;;;;;8.23;2.15;;;;;;;13.84;100.00;99173.09;4972776;28;20474;-60
2022/10/30 07:43:00;;;;;;;7.70;2.28;;;;;;;13.91;100.00;99185.56;4965741;28;20046;-59
2022/10/30 07:45:26;;;;;;;12.48;2.42;;;;;;;13.90;100.00;99163.84;4959512;28;20043;-59
2022/10/30 07:47:52;;;;;;;8.02;2.08;;;;;;;13.98;100.00;99181.38;4971944;28;20027;-60
2022/10/30 07:50:18;;;;;;;7.70;2.10;;;;;;;13.72;100.00;99140.34;4973161;28;20039;-60
2022/10/30 07:52:45;;;;;;;9.18;2.33;;;;;;;14.01;100.00;99188.91;4965905;28;20490;-60
2022/10/30 07:55:11;;;;;;;10.05;2.30;;;;;;;14.01;100.00;99191.53;4974980;28;20045;-60
2022/10/30 07:57:40;;;;;;;10.20;2.08;;;;;;;13.90;100.00;99187.34;4970454;28;20034;-59
2022/10/30 08:00:10;;;;;;;;;;;;;;;13.91;100.00;99190.78;4972240;28;20030;-59
2022/10/30 08:02:36;;;;;;;10.07;3.08;;;;;;;13.71;100.00;99158.78;4978235;28;19921;-60
2022/10/30 08:05:02;;;;;;;6.95;2.03;;;;;;;13.86;100.00;99201.72;4973566;28;20038;-60
2022/10/30 08:07:29;;;;;;;7.93;2.95;;;;;;;13.87;100.00;99187.66;4964927;28;20038;-59
2022/10/30 08:09:55;;;;;;;11.23;2.40;;;;;;;13.89;100.00;99203.19;4972896;28;20378;-59
2022/10/30 08:12:21;;;;;;;6.32;2.10;;;;;;;13.96;100.00;99199.84;4956929;28;20579;-60
2022/10/30 08:14:46;;;;;;;5.88;2.15;;;;;;;13.94;100.00;99203.56;4978705;28;20034;-60
2022/10/30 08:17:12;;;;;;;6.65;2.10;;;;;;;13.98;100.00;99194.44;4982984;28;20026;-59
2022/10/30 08:19:37;;;;;;;6.97;2.20;;;;;;;13.97;100.00;99192.81;4978590;28;20034;-60
2022/10/30 08:22:03;;;;;;;7.47;2.00;;;;;;;13.83;100.00;99161.00;4966812;28;20525;-59
2022/10/30 08:24:29;;;;;;;7.22;2.30;;;;;;;14.04;100.00;99205.13;4969781;28;20038;-59
2022/10/30 08:26:54;;;;;;;9.63;2.40;;;;;;;14.08;100.00;99197.78;4979869;28;20038;-58
2022/10/30 08:29:20;;;;;;;6.65;2.20;;;;;;;14.11;100.00;99191.41;4964768;28;20169;-60
2022/10/30 08:31:49;;;;;;;9.35;2.63;;;;;;;14.03;100.00;99177.31;4991255;28;20084;-60
2022/10/30 08:34:15;;;;;;;10.82;2.40;;;;;;;14.17;100.00;99188.22;4977571;28;20035;-59
2022/10/30 08:36:41;;;;;;;7.70;2.55;;;;;;;14.22;100.00;99196.41;4959768;28;20496;-59
2022/10/30 08:39:06;;;;;;;10.45;2.78;;;;;;;14.26;100.00;99194.31;4987232;28;20133;-59
2022/10/30 08:41:32;;;;;;;9.15;2.97;;;;;;;14.22;100.00;99192.00;5009512;28;20026;-58
2022/10/30 08:43:57;;;;;;;8.57;2.40;;;;;;;14.21;100.00;99184.31;4961686;28;20041;-61
2022/10/30 08:46:23;;;;;;;16.20;4.85;;;;;;;14.29;100.00;99186.97;4964504;28;20046;-59
2022/10/30 08:48:48;;;;;;;13.15;4.75;;;;;;;14.28;100.00;99177.47;4982278;28;20038;-59
2022/10/30 08:51:14;;;;;;;8.88;3.58;;;;;;;14.29;100.00;99179.13;4983526;28;20038;-60
2022/10/30 08:53:39;;;;;;;12.20;3.13;;;;;;;14.37;100.00;99178.34;4971151;28;20034;-59
2022/10/30 08:56:05;;;;;;;12.07;4.68;;;;;;;14.41;100.00;99177.06;4970718;28;20027;-58
2022/10/30 08:58:30;;;;;;;11.88;3.13;;;;;;;14.47;100.00;99171.19;4982547;28;20091;-58
2022/10/30 09:00:56;;;;;;;15.32;4.85;;;;;;;14.58;99.52;99178.84;4960571;28;20034;-59
2022/10/30 09:03:22;;;;;;;16.52;5.40;;;;;;;14.59;98.99;99167.38;4948989;28;20584;-59
2022/10/30 09:05:48;;;;;;;14.65;5.03;;;;;;;14.67;98.09;99165.78;4983642;28;20054;-59
2022/10/30 09:08:14;;;;;;;17.65;6.32;;;;;;;14.45;98.44;99126.06;4961252;28;20039;-59
2022/10/30 09:10:40;;;;;;;18.90;6.82;;;;;;;14.75;97.73;99166.63;4956961;28;20531;-59
2022/10/30 09:13:06;;;;;;;13.43;4.70;;;;;;;14.69;97.71;99153.34;4968224;28;20037;-60
2022/10/30 09:15:32;;;;;;;7.53;2.13;;;;;;;14.72;98.93;99161.69;4972043;28;20062;-59
2022/10/30 09:17:59;;;;;;;8.85;2.33;;;;;;;14.79;99.08;99170.56;4973072;28;20031;-60
2022/10/30 09:20:25;;;;;;;9.68;2.20;;;;;;;14.79;100.00;99164.50;5001324;28;20034;-60
2022/10/30 09:22:51;;;;;;;12.85;2.70;;;;;;;14.84;100.00;99166.63;4984031;28;20052;-59
2022/10/30 09:25:16;;;;;;;7.80;2.60;;;;;;;14.76;100.00;99156.97;4987673;28;20709;-60
2022/10/30 09:27:42;;;;;;;7.40;2.42;;;;;;;14.83;100.00;99165.03;4993866;28;20076;-59
2022/10/30 09:30:08;;;;;;;8.48;2.55;;;;;;;14.91;100.00;99168.50;4987222;28;20038;-59
2022/10/30 09:32:34;;;;;;;8.18;2.40;;;;;;;14.90;100.00;99172.06;4981687;28;20030;-59
2022/10/30 09:34:59;;;;;;;9.32;2.67;;;;;;;14.89;100.00;99153.91;4983876;28;20049;-59
2022/10/30 09:37:26;;;;;;;10.40;2.83;;;;;;;14.95;100.00;99169.00;4954247;28;20037;-60
2022/10/30 09:39:52;;;;;;;8.75;3.25;;;;;;;14.98;100.00;99164.22;4957633;28;20034;-60
2022/10/30 09:42:45;;;;;;;9.95;3.33;;;;;;;15.05;100.00;99161.00;4968865;28;20034;-59
2022/10/30 09:45:39;;;;;;;8.23;3.00;;;;;;;15.15;99.24;99161.66;4987602;28;20591;-59
2022/10/30 09:48:13;;;;;;;14.10;4.00;;;;;;;15.34;90.74;99168.41;4970695;28;20150;-59
2022/10/30 09:51:08;;;;;;;10.02;1.85;;;;;;;15.54;87.88;99167.13;4971964;28;20064;-60
2022/10/30 09:53:49;;;;;;;11.68;3.58;;;;;;;15.70;88.97;99168.13;4979061;28;20039;-60
2022/10/30 09:56:18;;;;;;;10.45;2.47;;;;;;;15.73;88.15;99170.38;4967844;28;20424;-58
2022/10/30 09:59:03;;;;;;;7.55;2.10;;;;;;;15.74;88.90;99158.97;4969596;28;20050;-60
2022/10/30 10:01:51;;;;;;;10.23;2.28;;;;;;;15.88;88.88;99168.78;4954377;28;20053;-59
2022/10/30 10:04:34;;;;;;;8.50;2.40;;;;;;;15.77;88.23;99129.81;4968082;28;20855;-59
2022/10/30 10:07:14;;;;;;;7.43;3.22;;;;;;;16.00;87.97;99160.59;4967446;28;20038;-60
2022/10/30 10:09:40;;;;;;;11.82;2.28;;;;;;;15.98;85.52;99159.94;4966105;28;20060;-60
2022/10/30 10:12:27;;;;;;;8.73;2.55;;;;;;;15.97;87.38;99150.41;4954271;28;20030;-58
2022/10/30 10:14:54;;;;;;;8.90;2.15;;;;;;;16.05;85.40;99156.47;4974399;28;20033;-59
2022/10/30 10:17:27;;;;;;;7.32;2.10;;;;;;;16.08;84.39;99156.16;4971227;28;20087;-59
2022/10/30 10:20:00;;;;;;;9.15;2.15;;;;;;;16.15;87.36;99151.03;4955010;28;20054;-58
2022/10/30 10:22:29;;;;;;;8.20;2.30;;;;;;;16.18;87.60;99150.72;4955623;28;20033;-58
2022/10/30 10:24:55;;;;;;;8.03;2.00;;;;;;;16.19;84.32;99154.97;4967172;28;20353;-59
2022/10/30 10:27:26;;;;;;;7.47;2.10;;;;;;;16.09;84.48;99128.91;4967629;28;20571;-59
2022/10/30 10:30:02;;;;;;;7.60;1.92;;;;;;;16.28;83.62;99145.25;4963929;28;20045;-62
2022/10/30 10:32:49;;;;;;;7.57;1.80;;;;;;;16.38;83.42;99139.84;4947984;28;20747;-59
2022/10/30 10:35:31;;;;;;;10.00;2.10;;;;;;;16.43;82.82;99137.53;4967264;28;21076;-59
2022/10/30 10:38:10;;;;;;;8.45;2.10;;;;;;;16.49;80.64;99144.72;4952356;28;20454;-63
2022/10/30 10:40:35;;;;;;;8.05;1.60;;;;;;;16.51;81.67;99143.53;4955187;28;20046;-60
2022/10/30 10:43:13;;;;;;;6.65;1.77;;;;;;;16.52;80.78;99145.19;4972142;28;20034;-59
2022/10/30 10:45:50;;;;;;;7.03;1.80;;;;;;;16.29;82.93;99107.56;4963239;28;20037;-60
2022/10/30 10:48:42;;;;;;;6.38;1.50;;;;;;;16.57;81.26;99138.59;4984415;28;20667;-60
2022/10/30 10:51:38;;;;;;;7.75;1.75;;;;;;;16.64;80.07;99140.38;4971035;28;20058;-60
2022/10/30 10:54:49;;;;;;;11.65;2.28;;;;;;;16.69;80.83;99139.88;4955768;28;20042;-60
2022/10/30 10:57:25;;;;;;;11.68;3.28;;;;;;;16.62;79.33;99118.72;4956610;28;20049;-60
2022/10/30 10:59:56;;;;;;;8.85;2.90;;;;;;;16.80;76.00;99128.19;4985625;28;20018;-60
2022/10/30 11:02:39;;;;;;;13.98;2.33;;;;;;;16.86;77.88;99132.75;4971816;28;20564;-60
2022/10/30 11:05:46;;;;;;;7.95;1.58;;;;;;;16.97;76.62;99124.47;4987293;28;20038;-60
2022/10/30 11:08:38;;;;;;;9.50;2.30;;;;;;;17.07;73.76;99116.41;4958586;28;20046;-59
2022/10/30 11:11:05;;;;;;;6.93;1.90;;;;;;;17.17;72.00;99110.91;4957789;28;20042;-59
2022/10/30 11:13:38;;;;;;;8.18;2.38;;;;;;;17.15;73.20;99112.91;4970910;28;20048;-60
2022/10/30 11:16:24;;;;;;;6.43;1.60;;;;;;;17.22;69.14;99112.00;4971540;28;20580;-60
2022/10/30 11:18:54;;;;;;;6.00;1.48;;;;;;;17.16;69.79;99104.00;4978094;28;20065;-59
2022/10/30 11:21:22;;;;;;;9.82;2.03;;;;;;;17.27;71.07;99099.16;4976111;28;20045;-60
2022/10/30 11:23:48;;;;;;;12.73;2.58;;;;;;;17.35;72.88;99102.72;4990297;28;20060;-60
2022/10/30 11:26:16;;;;;;;8.07;1.50;;;;;;;17.33;73.48;99100.28;4959528;28;20094;-60
2022/10/30 11:28:58;;;;;;;7.70;1.75;;;;;;;17.38;73.73;99091.88;4974078;28;20034;-61
2022/10/30 11:31:36;;;;;;;7.85;2.33;;;;;;;17.45;73.51;99084.88;4966679;28;20030;-60